Stevens, PA

4:59 AM EDT on July 26, 2016 (GMT -0400)
| | Change Station

Elev -9999 ft 0.00 °N, 0.00 °E | Updated

Clear
Clear
74 °F
Feels Like 74 °F
N
3
Wind Variable Wind from NW
Gusts mph

Today
High -- | Low -- °F
--% Chance of Precip.
Yesterday
High -- | Low -- °F
Precip. -- in
Pressure 29.93 in
Visibility 2.0 miles
Clouds Mostly Cloudy 300 ft
Dew Point 71 °F
Humidity 91%
Rainfall --
Snow Depth Not available.
5:57 AM 8:24 PM
Waning Gibbous, 57% visible
METAR KLNS 260853Z AUTO 32004KT 2SM BR BKN003 21/21 A2994 RMK AO2 SLP133 T02060206 50003
Pressure 29.93 in
Visibility 2.0 miles
Clouds Mostly Cloudy 300 ft
Dew Point 71 °F
Humidity 91%
Rainfall --
Snow Depth Not available.
5:57 AM 8:24 PM
Waning Gibbous, 57% visible
METAR KLNS 260853Z AUTO 32004KT 2SM BR BKN003 21/21 A2994 RMK AO2 SLP133 T02060206 50003

10-Day Weather Forecast

Almanac

Astronomy

Jul. 26, 2016 Rise Set
Actual Time
Civil Twilight
Nautical Twilight
Astronomical Twilight
Moon
Length of Visible Light
Length of Day
Tomorrow will be .
, % of the Moon is Illuminated

Today's Extremes

State Highs State Lows

Community

WunderPhotos

Upload Photos

1,927,556 photos uploaded!

WunderBlog® & News

Nearby

Air Quality

  Air Quality AQ Index Pollutant
Not available.

Snow Depth

Station Depth Elevation

Earthquake Activity

City Distance Mag. Time & Date
Minimum magnitude displayed is 2.5.

Coastal Water Temperatures

Place Temperature

Stations

Nearby Weather Stations

Station Location Temp. Windchill Dew Point Humidity Wind Precip. Elev Updated Type
                   

Watches & Warnings

There are currently no watches in effect.